createdAt,value
2022-11-12T00:00:28.952Z,11.85
2022-11-12T00:03:17.802Z,11.40
2022-11-12T00:06:06.579Z,10.00
2022-11-12T00:08:54.968Z,9.88
2022-11-12T00:11:46.437Z,12.25
2022-11-12T00:14:34.693Z,11.15
2022-11-12T00:17:23.570Z,10.52
2022-11-12T00:20:12.450Z,10.82
2022-11-12T00:23:01.286Z,11.40
2022-11-12T00:25:49.570Z,10.38
2022-11-12T00:28:40.939Z,11.57
2022-11-12T00:31:29.493Z,14.02
2022-11-12T00:34:18.020Z,12.57
2022-11-12T00:37:07.041Z,8.98
2022-11-12T00:39:55.364Z,10.90
2022-11-12T00:42:43.897Z,9.80
2022-11-12T00:45:35.422Z,10.70
2022-11-12T00:48:24.487Z,10.73
2022-11-12T00:51:13.562Z,12.70
2022-11-12T00:54:02.919Z,11.52
2022-11-12T00:56:51.690Z,14.30
2022-11-12T00:59:40.068Z,12.30
2022-11-12T01:02:32.322Z,10.60
2022-11-12T01:05:23.441Z,11.95
2022-11-12T01:08:12.348Z,11.15
2022-11-12T01:11:07.037Z,11.85
2022-11-12T01:13:57.944Z,14.73
2022-11-12T01:16:46.670Z,10.80
2022-11-12T01:19:38.042Z,12.45
2022-11-12T01:22:26.580Z,13.15
2022-11-12T01:25:15.330Z,13.18
2022-11-12T01:28:03.857Z,11.90
2022-11-12T01:30:52.045Z,10.23
2022-11-12T01:33:40.890Z,13.27
2022-11-12T01:36:34.909Z,10.20
2022-11-12T01:39:23.521Z,12.13
2022-11-12T01:42:12.965Z,11.13
2022-11-12T01:45:01.488Z,11.18
2022-11-12T01:47:53.408Z,11.57
2022-11-12T01:50:42.793Z,12.30
2022-11-12T01:53:35.490Z,14.98
2022-11-12T01:56:25.086Z,12.38
2022-11-12T01:59:18.676Z,10.02
2022-11-12T02:02:07.704Z,13.25
2022-11-12T02:04:57.604Z,9.02
2022-11-12T02:07:47.768Z,10.15
2022-11-12T02:10:39.243Z,11.68
2022-11-12T02:13:40.447Z,13.63
2022-11-12T02:16:32.013Z,13.13
2022-11-12T02:19:20.676Z,13.40
2022-11-12T02:22:12.200Z,13.60
2022-11-12T02:25:00.966Z,9.57
2022-11-12T02:27:51.927Z,11.73
2022-11-12T02:30:42.347Z,13.45
2022-11-12T02:33:30.996Z,11.57
2022-11-12T02:36:19.640Z,10.20
2022-11-12T02:39:10.829Z,12.25
2022-11-12T02:41:59.403Z,11.35
2022-11-12T02:44:48.370Z,10.18
2022-11-12T02:47:37.275Z,10.25
2022-11-12T02:50:25.677Z,10.93
2022-11-12T02:53:14.211Z,10.02
2022-11-12T02:56:05.816Z,10.27
2022-11-12T02:58:54.410Z,11.13
2022-11-12T03:01:42.764Z,11.18
2022-11-12T03:04:31.570Z,9.77
2022-11-12T03:07:20.064Z,10.55
2022-11-12T03:10:09.959Z,13.35
2022-11-12T03:13:03.420Z,11.32
2022-11-12T03:15:52.033Z,9.80
2022-11-12T03:18:40.437Z,8.32
2022-11-12T03:21:28.933Z,10.27
2022-11-12T03:24:17.657Z,9.70
2022-11-12T03:27:06.461Z,6.85
2022-11-12T03:29:57.585Z,9.18
2022-11-12T03:32:46.135Z,9.82
2022-11-12T03:35:34.906Z,9.02
2022-11-12T03:38:24.015Z,8.82
2022-11-12T03:41:12.924Z,8.23
2022-11-12T03:44:01.808Z,7.18
2022-11-12T03:46:53.014Z,8.27
2022-11-12T03:49:41.539Z,7.30
2022-11-12T03:52:30.182Z,10.32
2022-11-12T03:55:20.389Z,7.82
2022-11-12T03:58:09.209Z,7.85
2022-11-12T04:00:57.923Z,7.40
2022-11-12T04:03:48.749Z,7.50
2022-11-12T04:06:50.173Z,6.13
2022-11-12T04:09:38.617Z,8.75
2022-11-12T04:12:40.014Z,11.43
2022-11-12T04:15:28.717Z,6.97
2022-11-12T04:18:29.845Z,8.70
2022-11-12T04:21:33.606Z,7.35
2022-11-12T04:24:36.431Z,8.95
2022-11-12T04:27:26.681Z,6.93
2022-11-12T04:30:19.447Z,8.63
2022-11-12T04:33:08.358Z,7.75
2022-11-12T04:35:57.228Z,8.38
2022-11-12T04:38:48.397Z,8.07
2022-11-12T04:41:49.492Z,9.13
2022-11-12T04:44:50.117Z,10.50
2022-11-12T04:47:40.485Z,7.75
2022-11-12T04:50:29.345Z,31.58
2022-11-12T04:53:18.214Z,18.27
2022-11-12T04:56:09.997Z,20.88
2022-11-12T04:58:58.353Z,33.90
2022-11-12T05:01:47.310Z,17.38
2022-11-12T05:04:35.930Z,25.17
2022-11-12T05:07:24.951Z,33.65
2022-11-12T05:10:14.024Z,35.40
2022-11-12T05:13:06.152Z,26.50
2022-11-12T05:15:54.781Z,43.83
2022-11-12T05:18:43.272Z,46.40
2022-11-12T05:21:44.435Z,46.10
2022-11-12T05:24:41.933Z,31.30
2022-11-12T05:27:31.272Z,44.28
2022-11-12T05:30:22.309Z,45.47
2022-11-12T05:33:11.241Z,30.23
2022-11-12T05:36:00.511Z,20.40
2022-11-12T05:38:49.185Z,40.13
2022-11-12T05:41:58.260Z,7.47
2022-11-12T05:44:46.650Z,19.83
2022-11-12T05:47:37.690Z,11.88
2022-11-12T05:50:28.206Z,21.67
2022-11-12T05:53:23.535Z,17.80
2022-11-12T05:56:13.116Z,21.27
2022-11-12T05:59:01.888Z,18.85
2022-11-12T06:01:50.571Z,12.95
2022-11-12T06:04:41.569Z,42.50
2022-11-12T06:07:30.386Z,18.92
2022-11-12T06:10:20.625Z,15.15
2022-11-12T06:13:09.812Z,9.88
2022-11-12T06:15:59.245Z,12.50
2022-11-12T06:18:48.147Z,13.40
2022-11-12T06:21:39.516Z,5.20
2022-11-12T06:24:35.041Z,6.20
2022-11-12T06:30:13.768Z,4.45
2022-11-12T06:33:02.339Z,7.28
2022-11-12T06:35:50.970Z,15.27
2022-11-12T06:38:43.008Z,5.85
2022-11-12T06:41:31.868Z,9.55
2022-11-12T06:44:22.391Z,12.52
2022-11-12T06:47:11.192Z,8.48
2022-11-12T06:49:59.910Z,4.32
2022-11-12T06:52:49.343Z,6.20
2022-11-12T06:55:40.609Z,5.07
2022-11-12T06:58:29.309Z,4.07
2022-11-12T07:01:19.651Z,4.68
2022-11-12T07:04:08.056Z,6.40
2022-11-12T07:06:56.742Z,6.47
2022-11-12T07:09:45.908Z,7.47
2022-11-12T07:12:37.113Z,7.20
2022-11-12T07:15:25.641Z,6.38
2022-11-12T07:18:14.174Z,5.90
2022-11-12T07:21:04.924Z,7.40
2022-11-12T07:23:53.859Z,7.63
2022-11-12T07:26:47.273Z,6.60
2022-11-12T07:29:47.383Z,8.48
2022-11-12T07:32:42.831Z,7.40
2022-11-12T07:35:33.520Z,7.32
2022-11-12T07:38:23.222Z,18.67
2022-11-12T07:41:15.294Z,18.55
2022-11-12T07:44:04.042Z,29.38
2022-11-12T07:46:55.757Z,16.30
2022-11-12T07:49:44.819Z,31.35
2022-11-12T07:52:35.269Z,6.85
2022-11-12T07:55:23.663Z,49.78
2022-11-12T07:58:12.405Z,67.70
2022-11-12T08:01:01.336Z,25.00
2022-11-12T08:03:52.549Z,25.10
2022-11-12T08:06:41.949Z,17.52
2022-11-12T08:09:30.844Z,27.08
2022-11-12T08:12:19.502Z,16.70
2022-11-12T08:15:08.629Z,18.23
2022-11-12T08:17:57.543Z,11.35
2022-11-12T08:20:48.666Z,17.30
2022-11-12T08:23:37.621Z,11.77
2022-11-12T08:26:26.505Z,9.07
2022-11-12T08:29:15.185Z,10.85
2022-11-12T08:32:04.413Z,11.05
2022-11-12T08:34:52.867Z,11.57
2022-11-12T08:37:44.040Z,10.90
2022-11-12T08:40:34.612Z,12.65
2022-11-12T08:43:23.629Z,13.43
2022-11-12T08:46:12.464Z,18.27
2022-11-12T08:49:01.583Z,13.40
2022-11-12T08:51:50.154Z,13.85
2022-11-12T08:54:41.049Z,14.50
2022-11-12T08:57:29.793Z,12.85
2022-11-12T09:00:19.392Z,10.73
2022-11-12T09:03:10.063Z,15.57
2022-11-12T09:05:59.116Z,10.05
2022-11-12T09:08:47.728Z,10.27
2022-11-12T09:11:38.624Z,13.25
2022-11-12T09:14:27.195Z,11.63
2022-11-12T09:17:16.161Z,9.70
2022-11-12T09:20:04.520Z,9.68
2022-11-12T09:22:53.716Z,10.73
2022-11-12T09:25:43.083Z,8.63
2022-11-12T09:28:34.612Z,7.72
2022-11-12T09:31:25.667Z,9.15
2022-11-12T09:34:14.517Z,6.97
2022-11-12T09:37:03.154Z,7.88
2022-11-12T09:39:51.745Z,7.00
2022-11-12T09:42:40.464Z,6.55
2022-11-12T09:45:34.190Z,7.72
2022-11-12T09:48:28.531Z,7.57
2022-11-12T09:51:24.735Z,6.72
2022-11-12T09:54:23.568Z,5.25
2022-11-12T09:57:14.766Z,6.00
2022-11-12T10:00:03.527Z,6.28
2022-11-12T10:03:01.810Z,5.13
2022-11-12T10:05:55.065Z,5.47
2022-11-12T10:08:53.328Z,4.75
2022-11-12T10:12:18.308Z,4.95
2022-11-12T10:15:43.852Z,5.07
2022-11-12T10:18:47.034Z,6.95
2022-11-12T10:21:43.651Z,4.68
2022-11-12T10:24:39.136Z,5.85
2022-11-12T10:27:35.204Z,6.57
2022-11-12T10:30:25.393Z,4.65
2022-11-12T10:33:17.523Z,4.75
2022-11-12T10:36:27.233Z,4.55
2022-11-12T10:39:34.191Z,3.85
2022-11-12T10:42:24.807Z,3.88
2022-11-12T10:45:24.432Z,3.83
2022-11-12T10:48:27.594Z,4.00
2022-11-12T10:51:29.469Z,3.75
2022-11-12T10:54:31.720Z,6.28
2022-11-12T10:57:25.615Z,3.40
2022-11-12T11:00:24.303Z,4.77
2022-11-12T11:03:23.507Z,4.88
2022-11-12T11:06:27.468Z,4.47
2022-11-12T11:09:21.680Z,12.77
2022-11-12T11:12:25.787Z,7.07
2022-11-12T11:15:23.275Z,6.00
2022-11-12T11:18:14.195Z,3.60
2022-11-12T11:21:29.692Z,3.65
2022-11-12T11:24:28.314Z,5.15
2022-11-12T11:27:33.042Z,4.10
2022-11-12T11:30:23.056Z,4.53
2022-11-12T11:33:31.324Z,3.45
2022-11-12T11:36:33.169Z,2.42
2022-11-12T11:39:34.596Z,3.47
2022-11-12T11:42:41.574Z,2.63
2022-11-12T11:45:43.731Z,2.08
2022-11-12T11:48:43.561Z,3.20
2022-11-12T11:51:51.050Z,3.05
2022-11-12T11:54:55.377Z,3.17
2022-11-12T11:57:58.124Z,1.60
2022-11-12T12:00:55.370Z,2.85
2022-11-12T12:03:54.839Z,2.42
2022-11-12T12:06:52.892Z,1.90
2022-11-12T12:09:49.506Z,4.25
2022-11-12T12:12:52.744Z,4.20
2022-11-12T12:16:01.363Z,3.35
2022-11-12T12:18:58.709Z,5.45
2022-11-12T12:21:53.129Z,7.57
2022-11-12T12:24:50.361Z,5.20
2022-11-12T12:27:47.362Z,5.45
2022-11-12T12:30:39.483Z,6.05
2022-11-12T12:33:34.653Z,4.30
2022-11-12T12:39:21.765Z,3.88
2022-11-12T12:42:23.066Z,5.13
2022-11-12T12:45:38.653Z,4.45
2022-11-12T12:48:32.126Z,6.07
2022-11-12T12:51:20.717Z,4.95
2022-11-12T12:54:48.657Z,5.43
2022-11-12T12:57:41.163Z,5.95
2022-11-12T13:00:41.075Z,3.38
2022-11-12T13:03:55.604Z,3.80
2022-11-12T13:06:56.029Z,4.93
2022-11-12T13:09:44.986Z,3.75
2022-11-12T13:13:09.506Z,4.82
2022-11-12T13:16:02.011Z,4.57
2022-11-12T13:19:04.599Z,5.15
2022-11-12T13:22:37.351Z,3.75
2022-11-12T13:25:30.953Z,5.57
2022-11-12T13:28:19.576Z,6.65
2022-11-12T13:31:28.486Z,5.65
2022-11-12T13:34:23.857Z,4.72
2022-11-12T13:37:23.314Z,4.10
2022-11-12T13:40:17.028Z,4.38
2022-11-12T13:45:38.174Z,7.28
2022-11-12T13:48:29.835Z,4.82
2022-11-12T13:51:20.991Z,3.92
2022-11-12T13:54:24.833Z,3.35
2022-11-12T13:57:30.612Z,6.10
2022-11-12T14:00:25.026Z,5.93
2022-11-12T14:03:21.912Z,4.55
2022-11-12T14:06:18.739Z,3.42
2022-11-12T14:09:16.499Z,3.63
2022-11-12T14:12:20.562Z,2.97
2022-11-12T14:15:17.226Z,3.40
2022-11-12T14:18:09.432Z,6.30
2022-11-12T14:21:00.590Z,5.38
2022-11-12T14:23:50.197Z,3.40
2022-11-12T14:26:40.381Z,3.63
2022-11-12T14:29:34.611Z,4.57
2022-11-12T14:32:25.201Z,3.97
2022-11-12T14:35:21.135Z,2.83
2022-11-12T14:38:21.660Z,3.72
2022-11-12T14:41:13.057Z,4.93
2022-11-12T14:44:12.706Z,5.72
2022-11-12T14:47:02.963Z,2.58
2022-11-12T14:49:52.614Z,3.85
2022-11-12T14:52:44.880Z,2.05
2022-11-12T14:55:37.922Z,2.97
2022-11-12T14:58:28.002Z,2.88
2022-11-12T15:02:03.881Z,2.35
2022-11-12T15:04:39.718Z,2.38
2022-11-12T15:07:29.358Z,4.20
2022-11-12T15:10:33.546Z,5.38
2022-11-12T15:13:27.451Z,4.60
2022-11-12T15:16:21.464Z,3.78
2022-11-12T15:19:12.479Z,3.80
2022-11-12T15:22:03.312Z,5.82
2022-11-12T15:24:52.135Z,5.10
2022-11-12T15:27:43.322Z,8.07
2022-11-12T15:30:34.784Z,9.13
2022-11-12T15:33:25.813Z,6.32
2022-11-12T15:36:18.862Z,8.25
2022-11-12T15:39:15.135Z,6.72
2022-11-12T15:42:05.090Z,6.78
2022-11-12T15:44:58.338Z,9.40
2022-11-12T15:47:50.221Z,10.63
2022-11-12T15:50:39.165Z,11.30
2022-11-12T15:53:28.822Z,8.95
2022-11-12T15:56:21.972Z,8.82
2022-11-12T15:59:11.918Z,9.93
2022-11-12T16:02:00.495Z,11.43
2022-11-12T16:04:51.630Z,12.18
2022-11-12T16:07:40.194Z,22.08
2022-11-12T16:10:29.138Z,31.10
2022-11-12T16:13:18.954Z,34.35
2022-11-12T16:16:10.172Z,32.63
2022-11-12T16:18:58.933Z,24.58
2022-11-12T16:21:49.999Z,21.23
2022-11-12T16:24:38.811Z,15.88
2022-11-12T16:27:27.405Z,13.50
2022-11-12T16:30:19.644Z,19.65
2022-11-12T16:33:08.200Z,18.70
2022-11-12T16:35:56.848Z,16.95
2022-11-12T16:38:48.205Z,18.15
2022-11-12T16:41:37.042Z,18.08
2022-11-12T16:44:25.721Z,16.77
2022-11-12T16:47:14.595Z,16.35
2022-11-12T16:50:03.199Z,17.75
2022-11-12T16:52:52.798Z,17.20
2022-11-12T16:55:44.431Z,15.57
2022-11-12T16:58:35.118Z,14.05
2022-11-12T17:01:29.204Z,12.63
2022-11-12T17:04:17.756Z,13.60
2022-11-12T17:07:08.505Z,11.68
2022-11-12T17:09:57.186Z,9.95
2022-11-12T17:12:51.207Z,12.43
2022-11-12T17:15:40.194Z,11.57
2022-11-12T17:18:28.972Z,39.28
2022-11-12T17:21:19.475Z,17.33
2022-11-12T17:24:08.815Z,11.93
2022-11-12T17:26:57.800Z,11.25
2022-11-12T17:29:48.887Z,13.55
2022-11-12T17:32:37.731Z,11.05
2022-11-12T17:35:25.949Z,11.90
2022-11-12T17:38:15.505Z,11.55
2022-11-12T17:41:04.126Z,12.77
2022-11-12T17:43:57.864Z,16.10
2022-11-12T17:46:50.453Z,12.27
2022-11-12T17:49:39.161Z,13.95
2022-11-12T17:52:27.769Z,17.30
2022-11-12T17:55:16.236Z,14.52
2022-11-12T17:58:04.546Z,14.13
2022-11-12T18:00:54.479Z,14.77
2022-11-12T18:03:47.728Z,15.50
2022-11-12T18:06:38.109Z,15.00
2022-11-12T18:09:27.086Z,15.88
2022-11-12T18:12:15.719Z,18.20
2022-11-12T18:15:04.022Z,14.52
2022-11-12T18:17:52.801Z,15.80
2022-11-12T18:20:43.689Z,15.32
2022-11-12T18:23:32.164Z,16.60
2022-11-12T18:26:21.505Z,16.95
2022-11-12T18:29:10.417Z,14.02
2022-11-12T18:31:58.963Z,13.55
2022-11-12T18:34:47.207Z,12.13
2022-11-12T18:37:38.370Z,10.65
2022-11-12T18:40:27.083Z,13.80
2022-11-12T18:43:15.532Z,13.32
2022-11-12T18:46:04.343Z,14.52
2022-11-12T18:48:53.099Z,14.48
2022-11-12T18:51:42.242Z,11.55
2022-11-12T18:54:33.273Z,12.95
2022-11-12T18:57:22.481Z,22.50
2022-11-12T19:00:12.592Z,17.13
2022-11-12T19:03:00.816Z,21.55
2022-11-12T19:05:50.049Z,17.88
2022-11-12T19:08:38.402Z,19.85
2022-11-12T19:11:29.651Z,12.90
2022-11-12T19:14:18.199Z,13.77
2022-11-12T19:17:06.969Z,12.45
2022-11-12T19:19:55.738Z,13.25
2022-11-12T19:22:44.262Z,13.40
2022-11-12T19:25:32.746Z,11.02
2022-11-12T19:28:24.066Z,13.63
2022-11-12T19:31:16.628Z,18.10
2022-11-12T19:34:05.012Z,15.02
2022-11-12T19:37:12.035Z,14.07
2022-11-12T19:40:02.298Z,14.68
2022-11-12T19:42:50.841Z,18.13
2022-11-12T19:45:41.995Z,17.27
2022-11-12T19:48:31.241Z,15.40
2022-11-12T19:51:20.018Z,18.27
2022-11-12T19:54:08.749Z,17.95
2022-11-12T19:56:57.377Z,17.58
2022-11-12T19:59:45.931Z,15.75
2022-11-12T20:02:37.165Z,20.05
2022-11-12T20:05:25.713Z,19.77
2022-11-12T20:08:14.341Z,25.40
2022-11-12T20:11:04.386Z,24.02
2022-11-12T20:13:55.367Z,24.88
2022-11-12T20:16:44.168Z,17.25
2022-11-12T20:19:35.079Z,15.70
2022-11-12T20:22:26.657Z,20.73
2022-11-12T20:25:17.672Z,16.00
2022-11-12T20:28:06.219Z,18.73
2022-11-12T20:30:54.501Z,11.82
2022-11-12T20:33:43.713Z,18.42
2022-11-12T20:36:34.704Z,14.15
2022-11-12T20:39:24.085Z,15.18
2022-11-12T20:42:12.763Z,15.75
2022-11-12T20:45:01.227Z,17.23
2022-11-12T20:47:49.516Z,17.17
2022-11-12T20:50:40.046Z,15.43
2022-11-12T20:53:35.734Z,14.60
2022-11-12T20:56:25.781Z,11.93
2022-11-12T20:59:14.651Z,17.25
2022-11-12T21:02:03.303Z,16.95
2022-11-12T21:04:54.637Z,13.32
2022-11-12T21:07:42.868Z,12.82
2022-11-12T21:10:34.017Z,16.13
2022-11-12T21:13:23.660Z,12.48
2022-11-12T21:16:12.922Z,14.38
2022-11-12T21:19:03.410Z,12.07
2022-11-12T21:21:51.893Z,14.40
2022-11-12T21:24:40.805Z,15.75
2022-11-12T21:27:31.617Z,14.32
2022-11-12T21:30:20.133Z,14.32
2022-11-12T21:33:08.499Z,13.30
2022-11-12T21:35:57.688Z,13.77
2022-11-12T21:38:46.680Z,11.73
2022-11-12T21:41:35.283Z,14.65
2022-11-12T21:44:26.125Z,9.68
2022-11-12T21:47:15.310Z,13.70
2022-11-12T21:50:03.654Z,12.90
2022-11-12T21:52:52.696Z,14.52
2022-11-12T21:55:41.360Z,11.23
2022-11-12T21:58:32.425Z,14.80
2022-11-12T22:01:25.252Z,12.20
2022-11-12T22:04:18.187Z,14.07
2022-11-12T22:07:07.222Z,12.57
2022-11-12T22:09:57.043Z,11.55
2022-11-12T22:13:05.019Z,12.75
2022-11-12T22:15:54.213Z,12.23
2022-11-12T22:18:48.045Z,12.73
2022-11-12T22:21:40.124Z,11.15
2022-11-12T22:24:28.776Z,9.32
2022-11-12T22:27:17.640Z,11.30
2022-11-12T22:30:06.535Z,10.57
2022-11-12T22:32:55.339Z,13.52
2022-11-12T22:35:46.224Z,14.27
2022-11-12T22:38:39.064Z,15.57
2022-11-12T22:41:29.085Z,9.70
2022-11-12T22:44:17.698Z,11.30
2022-11-12T22:47:06.607Z,12.35
2022-11-12T22:49:55.203Z,16.65
2022-11-12T22:52:50.147Z,10.68
2022-11-12T22:55:39.182Z,8.85
2022-11-12T22:58:28.205Z,11.10
2022-11-12T23:01:23.212Z,10.43
2022-11-12T23:04:12.119Z,8.88
2022-11-12T23:07:00.725Z,9.02
2022-11-12T23:09:51.852Z,9.32
2022-11-12T23:12:40.552Z,10.57
2022-11-12T23:15:31.276Z,10.25
2022-11-12T23:18:19.630Z,11.48
2022-11-12T23:21:09.925Z,12.75
2022-11-12T23:24:00.016Z,8.40
2022-11-12T23:26:51.467Z,9.02
2022-11-12T23:29:40.011Z,10.15
2022-11-12T23:32:28.542Z,10.52
2022-11-12T23:35:17.203Z,9.90
2022-11-12T23:38:05.836Z,10.02
2022-11-12T23:40:57.567Z,8.07
2022-11-12T23:43:49.371Z,9.63
2022-11-12T23:46:38.300Z,11.80
2022-11-12T23:49:26.789Z,10.00
2022-11-12T23:52:15.201Z,9.73
2022-11-12T23:55:03.496Z,7.53
2022-11-12T23:57:54.739Z,9.93
